Time;durP1;ratioP1;P1;durP2;ratioP2;P2;SDS_P1;SDS_P2;PMS_P1;PMS_P2;Temp;Humidity;BMP_temperature;BMP_pressure;BME280_temperature;BME280_humidity;BME280_pressure;Samples;Min_cycle;Max_cycle;Signal;HPM_P1;HPM_P2
2023/06/30 00:08:11;;;;;;;11.15;9.88;;;12.90;99.90;;;;;;20974062;28;20088;-50
2023/06/30 00:18:13;;;;;;;13.18;10.60;;;12.70;99.90;;;;;;21005752;28;20207;-43
2023/06/30 00:28:14;;;;;;;13.15;9.48;;;12.60;99.90;;;;;;21011821;28;20087;-43
2023/06/30 00:38:16;;;;;;;12.13;10.40;;;12.60;99.90;;;;;;21020522;28;20153;-52
2023/06/30 00:48:17;;;;;;;14.73;11.02;;;12.60;99.90;;;;;;21017936;28;20549;-49
2023/06/30 00:58:19;;;;;;;11.55;8.85;;;12.40;99.90;;;;;;21024735;28;20072;-51
2023/06/30 01:08:25;;;;;;;12.98;10.50;;;12.60;99.90;;;;;;21015695;28;20060;-50
2023/06/30 01:18:34;;;;;;;18.23;13.10;;;12.90;99.90;;;;;;21028976;28;20492;-50
2023/06/30 01:28:35;;;;;;;16.50;10.65;;;13.10;99.90;;;;;;21016399;28;20071;-45
2023/06/30 01:38:37;;;;;;;12.85;10.07;;;13.10;99.90;;;;;;21022250;28;20063;-50
2023/06/30 01:48:40;;;;;;;12.85;10.50;;;13.00;99.90;;;;;;21016913;28;20149;-48
2023/06/30 01:58:42;;;;;;;8.40;6.55;;;13.20;99.90;;;;;;21033451;28;20063;-48
2023/06/30 02:08:46;;;;;;;6.25;3.72;;;13.30;99.90;;;;;;21023879;28;20079;-44
2023/06/30 02:18:51;;;;;;;4.05;2.33;;;13.30;99.90;;;;;;21020894;28;20067;-53
2023/06/30 02:28:53;;;;;;;4.72;2.85;;;13.30;99.90;;;;;;21022133;28;20132;-50
2023/06/30 02:38:54;;;;;;;5.13;2.17;;;13.30;99.90;;;;;;21010042;28;20118;-46
2023/06/30 02:48:57;;;;;;;4.80;2.20;;;13.30;99.90;;;;;;21013206;28;20180;-51
2023/06/30 02:58:59;;;;;;;6.05;2.30;;;13.20;99.90;;;;;;21015816;28;20112;-50
2023/06/30 03:09:02;;;;;;;4.35;2.95;;;13.30;99.90;;;;;;20995718;28;20063;-51
2023/06/30 03:19:06;;;;;;;4.97;2.95;;;13.30;99.90;;;;;;21007583;28;20144;-47
2023/06/30 03:29:07;;;;;;;2.97;2.45;;;13.40;99.90;;;;;;20999606;28;20083;-44
2023/06/30 03:39:09;;;;;;;15.55;4.07;;;13.50;99.90;;;;;;21006538;28;20064;-44
2023/06/30 03:49:11;;;;;;;10.80;6.75;;;13.30;99.90;;;;;;21038157;28;20518;-48
2023/06/30 03:59:15;;;;;;;10.57;8.10;;;12.60;99.90;;;;;;21018315;28;20233;-49
2023/06/30 04:09:16;;;;;;;14.70;11.48;;;12.20;99.90;;;;;;21024005;28;20485;-50
2023/06/30 04:19:18;;;;;;;23.50;18.17;;;12.00;99.90;;;;;;21010649;28;20093;-54
2023/06/30 04:29:20;;;;;;;25.83;20.30;;;12.20;99.90;;;;;;21046815;28;20075;-52
2023/06/30 04:39:21;;;;;;;28.92;21.88;;;12.40;99.90;;;;;;21016130;28;20469;-51
2023/06/30 04:49:24;;;;;;;20.83;16.08;;;12.60;99.90;;;;;;21019054;28;20087;-44
2023/06/30 04:59:25;;;;;;;31.95;22.23;;;12.50;99.90;;;;;;21024348;28;20557;-55
2023/06/30 05:09:27;;;;;;;31.85;23.65;;;12.60;99.90;;;;;;21030561;28;20071;-50
2023/06/30 05:19:28;;;;;;;24.60;18.13;;;12.80;99.90;;;;;;20999105;28;20168;-55
2023/06/30 05:29:31;;;;;;;10.65;8.75;;;13.00;99.90;;;;;;21016462;28;20071;-51
2023/06/30 05:39:33;;;;;;;9.95;8.40;;;13.40;99.90;;;;;;20977130;28;1231608;-53
2023/06/30 05:49:34;;;;;;;7.28;5.72;;;13.80;99.90;;;;;;21022052;28;20071;-54
2023/06/30 05:59:36;;;;;;;8.32;7.50;;;14.20;99.90;;;;;;21025840;28;20072;-49
2023/06/30 06:09:38;;;;;;;8.95;6.97;;;14.70;99.90;;;;;;21006691;28;20068;-55
2023/06/30 06:19:40;;;;;;;6.95;6.25;;;15.40;99.90;;;;;;20999500;28;20130;-55
2023/06/30 06:29:42;;;;;;;8.90;6.43;;;15.80;99.90;;;;;;21048669;28;20067;-50
2023/06/30 06:39:43;;;;;;;6.00;4.20;;;16.40;99.90;;;;;;21003680;28;20549;-49
2023/06/30 06:49:45;;;;;;;5.28;4.18;;;16.50;99.90;;;;;;21021647;28;20071;-48
2023/06/30 06:59:46;;;;;;;5.47;4.13;;;16.50;99.90;;;;;;21021076;28;20527;-50
2023/06/30 07:09:48;;;;;;;3.50;2.80;;;16.40;99.90;;;;;;21011829;28;20064;-57
2023/06/30 07:19:50;;;;;;;3.35;2.83;;;17.20;99.90;;;;;;21009825;28;20072;-57
2023/06/30 07:29:51;;;;;;;7.70;2.60;;;17.30;99.90;;;;;;21022675;28;20068;-56
2023/06/30 07:39:53;;;;;;;2.92;2.63;;;17.10;99.90;;;;;;20966846;28;20189;-56
2023/06/30 07:49:54;;;;;;;3.80;2.80;;;16.80;99.90;;;;;;20995840;28;20059;-54
2023/06/30 07:59:56;;;;;;;7.45;2.70;;;16.60;99.90;;;;;;20994964;28;20136;-54
2023/06/30 08:09:58;;;;;;;4.35;2.63;;;17.50;99.90;;;;;;21017818;28;20068;-47
2023/06/30 08:19:59;;;;;;;2.97;2.25;;;20.40;99.90;;;;;;21021087;28;20060;-58
2023/06/30 08:30:01;;;;;;;4.68;2.10;;;22.70;98.30;;;;;;21000040;28;20059;-58
2023/06/30 08:40:03;;;;;;;3.13;2.25;;;23.60;99.90;;;;;;21011417;28;20521;-55
2023/06/30 08:50:06;;;;;;;3.15;1.85;;;23.30;98.10;;;;;;21026355;28;20068;-54
2023/06/30 09:00:08;;;;;;;3.67;1.60;;;22.30;99.90;;;;;;21019731;28;20059;-56
2023/06/30 09:10:11;;;;;;;2.88;1.52;;;21.40;99.90;;;;;;21015246;28;20067;-56
2023/06/30 09:20:13;;;;;;;3.08;1.50;;;21.20;99.90;;;;;;21039374;28;20118;-54
2023/06/30 09:30:15;;;;;;;6.45;1.55;;;21.90;98.30;;;;;;21049957;28;20597;-57
2023/06/30 09:40:23;;;;;;;2.97;2.13;;;22.60;97.40;;;;;;21033663;28;20067;-54
2023/06/30 09:50:25;;;;;;;3.40;2.58;;;21.70;98.20;;;;;;21034509;28;20067;-56
2023/06/30 10:00:28;;;;;;;5.82;3.25;;;20.70;99.90;;;;;;21030316;28;20568;-57
2023/06/30 10:10:30;;;;;;;4.75;3.20;;;20.70;99.90;;;;;;21015054;28;20635;-50
2023/06/30 10:20:32;;;;;;;3.53;2.65;;;21.30;99.80;;;;;;20995823;28;20060;-53
2023/06/30 10:30:34;;;;;;;5.57;3.40;;;21.90;99.90;;;;;;21016707;28;20498;-57
2023/06/30 10:40:36;;;;;;;5.35;3.83;;;22.90;97.80;;;;;;21020110;28;20082;-54
2023/06/30 10:50:44;;;;;;;5.25;4.22;;;22.60;97.80;;;;;;21022967;28;20067;-57
2023/06/30 11:01:05;;;;;;;;;;;21.10;99.90;;;;;;21031407;28;20506;-49
2023/06/30 11:11:06;;;;;;;5.47;4.97;;;20.20;99.90;;;;;;21032920;28;20527;-51
2023/06/30 11:21:08;;;;;;;6.30;4.75;;;19.80;99.90;;;;;;21023317;28;20119;-54
2023/06/30 11:31:11;;;;;;;9.18;5.45;;;19.20;99.90;;;;;;21033770;28;20068;-52
2023/06/30 11:41:23;;;;;;;7.85;5.45;;;18.20;99.90;;;;;;21002911;28;20115;-54
2023/06/30 11:51:24;;;;;;;8.48;5.75;;;17.60;99.90;;;;;;21005667;28;20068;-57
2023/06/30 12:01:26;;;;;;;7.93;5.97;;;17.10;99.90;;;;;;21016524;28;20138;-55
2023/06/30 12:11:32;;;;;;;6.97;6.25;;;17.00;99.90;;;;;;21033539;28;20109;-45
2023/06/30 12:21:34;;;;;;;5.75;5.25;;;17.30;99.90;;;;;;21035215;28;20137;-55
2023/06/30 12:31:35;;;;;;;6.80;6.05;;;17.50;99.90;;;;;;21046285;28;20063;-54
2023/06/30 12:41:37;;;;;;;14.57;7.10;;;17.10;99.90;;;;;;21036178;28;20511;-53
2023/06/30 12:51:39;;;;;;;10.38;7.32;;;16.80;99.90;;;;;;21041079;28;20067;-50
2023/06/30 13:01:41;;;;;;;9.65;8.52;;;16.40;99.90;;;;;;21049305;28;20137;-53
2023/06/30 13:11:43;;;;;;;9.98;8.95;;;16.00;99.90;;;;;;21029460;28;20466;-49
2023/06/30 13:21:44;;;;;;;10.68;7.93;;;15.70;99.90;;;;;;21032301;28;20193;-49
2023/06/30 13:31:46;;;;;;;10.32;8.30;;;15.70;99.90;;;;;;21020243;28;20603;-46
2023/06/30 13:41:48;;;;;;;10.93;7.72;;;16.30;99.90;;;;;;21020083;28;20557;-52
2023/06/30 13:51:50;;;;;;;8.55;7.18;;;16.70;99.90;;;;;;21029117;28;20080;-49
2023/06/30 14:01:52;;;;;;;9.55;8.60;;;16.70;99.90;;;;;;21012167;28;20466;-48
2023/06/30 14:11:54;;;;;;;11.40;9.50;;;16.70;99.90;;;;;;21018425;28;20136;-44
2023/06/30 14:21:55;;;;;;;12.05;9.68;;;16.70;99.90;;;;;;21021555;28;20063;-53
2023/06/30 14:31:58;;;;;;;10.38;9.38;;;16.70;99.90;;;;;;21037345;28;20071;-52
2023/06/30 14:42:00;;;;;;;11.98;10.73;;;16.40;99.90;;;;;;21028326;28;20093;-52
2023/06/30 14:52:01;;;;;;;14.40;11.63;;;15.80;99.90;;;;;;21015143;28;20067;-47
2023/06/30 15:02:03;;;;;;;14.38;12.23;;;15.20;99.90;;;;;;21018416;28;20068;-51
2023/06/30 15:12:06;;;;;;;11.43;9.52;;;14.70;99.90;;;;;;21013736;28;20097;-49
2023/06/30 15:22:07;;;;;;;14.15;11.90;;;14.40;99.90;;;;;;20998251;28;20138;-48
2023/06/30 15:32:09;;;;;;;19.35;15.05;;;13.90;99.90;;;;;;21023712;28;20124;-49
2023/06/30 15:42:11;;;;;;;19.73;16.65;;;13.80;99.90;;;;;;21028652;28;20064;-47
2023/06/30 15:52:13;;;;;;;25.92;17.95;;;13.80;99.90;;;;;;21049357;28;20068;-50
2023/06/30 16:02:14;;;;;;;25.83;19.90;;;13.70;99.90;;;;;;21054580;28;20060;-49
2023/06/30 16:12:16;;;;;;;22.48;16.75;;;13.60;99.90;;;;;;21005847;28;20123;-52
2023/06/30 16:22:17;;;;;;;17.40;15.23;;;13.60;99.90;;;;;;21028094;28;20059;-50
2023/06/30 16:32:19;;;;;;;15.02;13.43;;;14.00;99.90;;;;;;21018432;28;20059;-46
2023/06/30 16:42:20;;;;;;;14.88;12.52;;;14.30;99.90;;;;;;21036252;28;20371;-51
2023/06/30 16:52:22;;;;;;;17.95;15.57;;;14.40;99.90;;;;;;21042060;28;20066;-54
2023/06/30 17:02:24;;;;;;;18.88;16.08;;;14.60;99.90;;;;;;21044325;28;20115;-46
2023/06/30 17:12:25;;;;;;;20.55;17.40;;;14.40;99.90;;;;;;21033295;28;20438;-49
2023/06/30 17:22:27;;;;;;;20.38;16.23;;;14.10;99.90;;;;;;21035520;28;20059;-56
2023/06/30 17:32:28;;;;;;;24.52;18.40;;;14.10;99.90;;;;;;21040743;28;20153;-48
2023/06/30 17:42:30;;;;;;;16.67;13.93;;;14.00;99.90;;;;;;21035202;28;20101;-45
2023/06/30 17:52:32;;;;;;;20.77;14.68;;;14.00;99.90;;;;;;21016618;28;20497;-44
2023/06/30 18:02:33;;;;;;;18.17;16.25;;;14.10;99.90;;;;;;21032552;28;20055;-46
2023/06/30 18:12:35;;;;;;;19.63;17.13;;;14.20;99.90;;;;;;21024844;28;20109;-52
2023/06/30 18:22:37;;;;;;;17.33;14.95;;;14.20;99.90;;;;;;21024457;28;20090;-45
2023/06/30 18:32:39;;;;;;;17.80;14.65;;;14.20;99.90;;;;;;21017324;28;20167;-55
2023/06/30 18:42:40;;;;;;;20.63;18.48;;;14.00;99.90;;;;;;21019370;28;20119;-48
2023/06/30 18:52:42;;;;;;;21.02;18.30;;;13.90;99.90;;;;;;21030108;28;20117;-51
2023/06/30 19:02:43;;;;;;;19.75;17.58;;;13.80;99.90;;;;;;21015204;28;20482;-48
2023/06/30 19:12:45;;;;;;;17.98;16.08;;;13.70;99.90;;;;;;21024639;28;20072;-48
2023/06/30 19:22:47;;;;;;;20.58;18.08;;;13.70;99.90;;;;;;20996682;28;20544;-47
2023/06/30 19:32:49;;;;;;;23.20;19.60;;;13.90;99.90;;;;;;21019095;28;20060;-49
2023/06/30 19:42:51;;;;;;;20.75;18.13;;;13.70;99.90;;;;;;20962224;28;20137;-56
2023/06/30 19:52:52;;;;;;;18.08;15.75;;;13.60;99.90;;;;;;21015775;28;20642;-47
2023/06/30 20:02:54;;;;;;;15.00;12.10;;;13.60;99.90;;;;;;21005295;28;20063;-51
2023/06/30 20:12:55;;;;;;;11.52;10.35;;;13.50;99.90;;;;;;21013995;28;20067;-48
2023/06/30 20:22:57;;;;;;;10.07;8.90;;;13.40;99.90;;;;;;21018686;28;20558;-50
2023/06/30 20:32:58;;;;;;;8.55;7.28;;;13.30;99.90;;;;;;21037608;28;20101;-50
2023/06/30 20:43:00;;;;;;;9.98;6.78;;;13.30;99.90;;;;;;21037609;28;20122;-51
2023/06/30 20:53:02;;;;;;;6.35;5.68;;;13.10;99.90;;;;;;21029901;28;20125;-51
2023/06/30 21:03:03;;;;;;;5.95;5.28;;;13.10;99.90;;;;;;21038714;28;20142;-50
2023/06/30 21:13:05;;;;;;;7.63;4.55;;;13.10;99.90;;;;;;21010910;28;20123;-50
2023/06/30 21:23:06;;;;;;;4.18;3.78;;;13.10;99.90;;;;;;21026828;28;20472;-45
2023/06/30 21:33:08;;;;;;;6.30;5.30;;;13.10;99.90;;;;;;21016848;28;20121;-43
2023/06/30 21:43:10;;;;;;;7.60;6.80;;;13.10;99.90;;;;;;21032183;28;20075;-54
2023/06/30 21:53:11;;;;;;;10.18;8.10;;;13.00;99.90;;;;;;21030699;28;20068;-52
2023/06/30 22:03:13;;;;;;;10.95;9.50;;;13.00;99.90;;;;;;21036453;28;20059;-51
2023/06/30 22:13:14;;;;;;;13.02;10.50;;;13.00;99.90;;;;;;20996890;28;20072;-51
2023/06/30 22:23:16;;;;;;;12.65;10.38;;;12.90;99.90;;;;;;21029546;28;20055;-53
2023/06/30 22:33:18;;;;;;;11.85;8.00;;;12.90;99.90;;;;;;21024526;28;20124;-50
2023/06/30 22:43:19;;;;;;;6.93;6.22;;;12.90;99.90;;;;;;21011298;28;20129;-51
2023/06/30 22:53:21;;;;;;;5.75;5.15;;;12.90;99.90;;;;;;21019382;28;20457;-51
2023/06/30 23:03:23;;;;;;;6.85;5.82;;;12.90;99.90;;;;;;21034375;28;20088;-53
2023/06/30 23:13:24;;;;;;;6.90;6.00;;;12.80;99.90;;;;;;21020694;28;20490;-50
2023/06/30 23:23:27;;;;;;;8.95;6.07;;;12.80;99.90;;;;;;21035772;28;20068;-51
2023/06/30 23:33:29;;;;;;;11.30;6.95;;;12.80;99.90;;;;;;21032190;28;20574;-48
2023/06/30 23:43:30;;;;;;;9.85;8.27;;;12.90;99.90;;;;;;21023315;28;20075;-52
2023/06/30 23:53:32;;;;;;;8.68;7.60;;;12.90;99.90;;;;;;21025741;28;20067;-49
